Time;durP1;ratioP1;P1;durP2;ratioP2;P2;SDS_P1;SDS_P2;PMS_P1;PMS_P2;Temp;Humidity;BMP_temperature;BMP_pressure;BME280_temperature;BME280_humidity;BME280_pressure;Samples;Min_cycle;Max_cycle;Signal;HPM_P1;HPM_P2
2023/10/16 00:02:13;;;;;;;1999.90;999.90;;;7.40;99.90;;;;;;5028931;28;20037;-66
2023/10/16 00:04:45;;;;;;;1999.90;999.90;;;7.40;99.90;;;;;;5046829;28;20076;-66
2023/10/16 00:07:16;;;;;;;1999.90;999.90;;;7.40;99.90;;;;;;5039817;28;20037;-66
2023/10/16 00:09:43;;;;;;;1999.90;999.90;;;7.30;99.90;;;;;;5032984;28;20087;-66
2023/10/16 00:12:09;;;;;;;1999.90;999.90;;;7.20;99.90;;;;;;5049648;28;20530;-66
2023/10/16 00:14:35;;;;;;;1999.90;999.90;;;7.20;99.90;;;;;;5063917;28;20102;-66
2023/10/16 00:17:08;;;;;;;1999.90;999.90;;;7.20;99.90;;;;;;5063902;28;20148;-66
2023/10/16 00:19:40;;;;;;;1999.90;999.90;;;7.20;99.90;;;;;;5048887;28;20040;-66
2023/10/16 00:22:18;;;;;;;1999.90;999.90;;;7.20;99.90;;;;;;5019226;28;20167;-66
2023/10/16 00:24:47;;;;;;;1999.90;999.90;;;7.20;99.90;;;;;;5046762;28;20135;-65
2023/10/16 00:27:16;;;;;;;1999.90;999.90;;;7.20;99.90;;;;;;5057229;28;20040;-66
2023/10/16 00:29:45;;;;;;;1999.90;999.90;;;7.20;99.90;;;;;;5048048;28;20178;-66
2023/10/16 00:32:11;;;;;;;1999.90;999.90;;;7.20;99.90;;;;;;5048827;28;20041;-66
2023/10/16 00:34:38;;;;;;;1999.90;999.90;;;7.20;99.90;;;;;;5066263;28;20078;-66
2023/10/16 00:37:04;;;;;;;1999.90;999.90;;;7.10;99.90;;;;;;5049565;28;20029;-66
2023/10/16 00:39:32;;;;;;;1999.90;999.90;;;7.10;99.90;;;;;;5045309;28;20087;-66
2023/10/16 00:41:58;;;;;;;1999.90;999.90;;;7.10;99.90;;;;;;5044535;28;20059;-66
2023/10/16 00:44:25;;;;;;;1999.90;999.90;;;7.00;99.90;;;;;;5049607;28;20052;-66
2023/10/16 00:46:52;;;;;;;1999.90;999.90;;;7.00;99.90;;;;;;5050658;28;20041;-66
2023/10/16 00:49:18;;;;;;;1999.90;999.90;;;7.00;99.90;;;;;;5048488;28;20045;-66
2023/10/16 00:51:45;;;;;;;1999.90;999.90;;;7.00;99.90;;;;;;5047752;28;20047;-66
2023/10/16 00:54:26;;;;;;;1999.90;999.90;;;7.00;99.90;;;;;;5040627;28;20796;-66
2023/10/16 00:56:53;;;;;;;1999.90;999.90;;;7.10;99.90;;;;;;5028449;28;20343;-66
2023/10/16 00:59:23;;;;;;;1999.90;999.90;;;7.10;99.90;;;;;;5042327;28;20049;-66
2023/10/16 01:01:52;;;;;;;1999.90;999.90;;;7.20;99.90;;;;;;5040838;28;20044;-66
2023/10/16 01:04:19;;;;;;;1999.90;999.90;;;7.20;99.90;;;;;;5041163;28;20060;-66
2023/10/16 01:06:46;;;;;;;1999.90;999.90;;;7.30;99.90;;;;;;5046310;28;20405;-66
2023/10/16 01:09:22;;;;;;;1999.90;999.90;;;7.30;99.90;;;;;;5063855;28;20089;-66
2023/10/16 01:11:52;;;;;;;1999.90;999.90;;;7.30;99.90;;;;;;5047830;28;20033;-66
2023/10/16 01:14:18;;;;;;;1999.90;999.90;;;7.30;99.90;;;;;;5030083;28;20051;-66
2023/10/16 01:16:44;;;;;;;1999.90;999.90;;;7.30;99.90;;;;;;5051529;28;20052;-66
2023/10/16 01:19:10;;;;;;;1999.90;999.90;;;7.20;99.90;;;;;;5047251;28;20028;-66
2023/10/16 01:21:36;;;;;;;1999.90;999.90;;;7.20;99.90;;;;;;5046415;28;20080;-66
2023/10/16 01:24:21;;;;;;;1999.90;999.90;;;7.20;99.90;;;;;;5047181;28;20048;-66
2023/10/16 01:26:48;;;;;;;1999.90;999.90;;;7.10;99.90;;;;;;5047447;28;20048;-66
2023/10/16 01:29:15;;;;;;;1999.90;999.90;;;7.10;99.90;;;;;;5061385;28;20372;-67
2023/10/16 01:31:44;;;;;;;1999.90;999.90;;;7.10;99.90;;;;;;5042193;28;20098;-66
2023/10/16 01:34:13;;;;;;;1999.90;999.90;;;7.10;99.90;;;;;;5047439;28;20143;-66
2023/10/16 01:36:45;;;;;;;1999.90;999.90;;;7.10;99.90;;;;;;5040205;28;20067;-66
2023/10/16 01:39:47;;;;;;;1999.90;999.90;;;7.20;99.90;;;;;;5048131;28;20386;-66
2023/10/16 01:42:01;;;;;;;1999.90;999.90;;;7.20;99.90;;;;;;5058002;28;20088;-66
2023/10/16 01:44:28;;;;;;;1999.90;999.90;;;7.30;99.90;;;;;;5030442;28;20053;-66
2023/10/16 01:46:54;;;;;;;1999.90;999.90;;;7.30;99.90;;;;;;5029027;28;20821;-66
2023/10/16 01:49:24;;;;;;;1999.90;999.90;;;7.30;99.90;;;;;;5046258;28;20045;-65
2023/10/16 01:51:51;;;;;;;1999.90;999.90;;;7.30;99.90;;;;;;5041674;28;20074;-66
2023/10/16 01:54:21;;;;;;;1999.90;999.90;;;7.30;99.90;;;;;;5047249;28;20064;-66
2023/10/16 01:56:49;;;;;;;1999.90;999.90;;;7.20;99.90;;;;;;5037453;28;20091;-66
2023/10/16 01:59:14;;;;;;;1999.90;999.90;;;7.30;99.90;;;;;;5052588;28;20040;-66
2023/10/16 02:01:41;;;;;;;1999.90;999.90;;;7.30;99.90;;;;;;5028513;28;20037;-66
2023/10/16 02:04:06;;;;;;;1999.90;999.90;;;7.40;99.90;;;;;;5021894;28;20043;-66
2023/10/16 02:06:32;;;;;;;1999.90;999.90;;;7.40;99.90;;;;;;5036033;28;20049;-66
2023/10/16 02:08:59;;;;;;;1999.90;999.90;;;7.40;99.90;;;;;;5060091;28;20127;-67
2023/10/16 02:11:25;;;;;;;1999.90;999.90;;;7.50;99.90;;;;;;5028840;28;20488;-66
2023/10/16 02:13:51;;;;;;;1999.90;999.90;;;7.50;99.90;;;;;;5043440;28;20036;-66
2023/10/16 02:16:18;;;;;;;1999.90;999.90;;;7.60;99.90;;;;;;5045584;28;20060;-66
2023/10/16 02:18:45;;;;;;;1999.90;999.90;;;7.60;99.90;;;;;;5032553;28;20436;-66
2023/10/16 02:21:13;;;;;;;1999.90;999.90;;;7.70;99.90;;;;;;5057653;28;20052;-66
2023/10/16 02:23:39;;;;;;;1999.90;999.90;;;7.70;99.90;;;;;;5048116;28;20045;-66
2023/10/16 02:26:08;;;;;;;1999.90;999.90;;;7.70;99.90;;;;;;5034172;28;20042;-66
2023/10/16 02:28:33;;;;;;;1999.90;999.90;;;7.70;99.90;;;;;;5044265;28;20038;-66
2023/10/16 02:31:13;;;;;;;1999.90;999.90;;;7.70;99.90;;;;;;5032405;28;20160;-66
2023/10/16 02:33:46;;;;;;;1999.90;999.90;;;7.70;99.90;;;;;;5044402;28;20076;-66
2023/10/16 02:36:15;;;;;;;1999.90;999.90;;;7.70;99.90;;;;;;5040514;28;20049;-66
2023/10/16 02:38:44;;;;;;;1999.90;999.90;;;7.70;99.90;;;;;;5029696;28;20545;-66
2023/10/16 02:41:09;;;;;;;1999.90;999.90;;;7.60;99.90;;;;;;5032739;28;20049;-66
2023/10/16 02:43:41;;;;;;;1999.90;999.90;;;7.60;99.90;;;;;;5039104;28;20048;-67
2023/10/16 02:46:09;;;;;;;1999.90;999.90;;;7.60;99.90;;;;;;5034425;28;20052;-66
2023/10/16 02:48:35;;;;;;;1999.90;999.90;;;7.60;99.90;;;;;;5044553;28;20405;-65
2023/10/16 02:51:02;;;;;;;1999.90;999.90;;;7.60;99.90;;;;;;5044331;28;20045;-66
2023/10/16 02:53:29;;;;;;;1999.90;999.90;;;7.70;99.90;;;;;;5044615;28;20044;-66
2023/10/16 02:56:05;;;;;;;1999.90;999.90;;;7.70;99.90;;;;;;5033777;28;20501;-66
2023/10/16 02:58:32;;;;;;;1999.90;999.90;;;7.70;99.90;;;;;;5029355;28;20072;-66
2023/10/16 03:01:12;;;;;;;1999.90;999.90;;;7.70;99.90;;;;;;5042240;28;20097;-65
2023/10/16 03:03:42;;;;;;;1999.90;999.90;;;7.70;99.90;;;;;;5031422;28;20086;-66
2023/10/16 03:06:09;;;;;;;1999.90;999.90;;;7.70;99.90;;;;;;5044083;28;20056;-66
2023/10/16 03:08:36;;;;;;;1999.90;999.90;;;7.80;99.90;;;;;;5057273;28;20078;-66
2023/10/16 03:11:13;;;;;;;1999.90;999.90;;;7.80;99.90;;;;;;5043092;28;20093;-66
2023/10/16 03:13:43;;;;;;;1999.90;999.90;;;7.80;99.90;;;;;;5045573;28;20041;-66
2023/10/16 03:16:16;;;;;;;1999.90;999.90;;;7.80;99.90;;;;;;5042022;28;20420;-66
2023/10/16 03:18:43;;;;;;;1999.90;999.90;;;7.80;99.90;;;;;;5029384;28;20428;-66
2023/10/16 03:23:45;;;;;;;1999.90;999.90;;;7.90;99.90;;;;;;5052701;28;20402;-67
2023/10/16 03:28:46;;;;;;;1999.90;999.90;;;7.90;99.90;;;;;;5048650;28;20048;-66
2023/10/16 03:31:12;;;;;;;1999.90;999.90;;;7.90;99.90;;;;;;5043423;28;20032;-67
2023/10/16 03:33:38;;;;;;;1999.90;999.90;;;7.90;99.90;;;;;;5045996;28;20033;-67
2023/10/16 03:36:04;;;;;;;1999.90;999.90;;;7.90;99.90;;;;;;5030009;28;20051;-66
2023/10/16 03:38:36;;;;;;;1999.90;999.90;;;7.90;99.90;;;;;;5042192;28;20045;-67
2023/10/16 03:41:11;;;;;;;1999.90;999.90;;;7.90;99.90;;;;;;5061918;28;20064;-66
2023/10/16 03:43:37;;;;;;;1999.90;999.90;;;7.90;99.90;;;;;;5039064;28;20045;-66
2023/10/16 03:46:03;;;;;;;1999.90;999.90;;;7.90;99.90;;;;;;5038264;28;20451;-66
2023/10/16 03:48:28;;;;;;;1999.90;999.90;;;7.90;99.90;;;;;;5050576;28;20049;-66
2023/10/16 03:51:00;;;;;;;1999.90;999.90;;;7.90;99.90;;;;;;5041565;28;20043;-66
2023/10/16 03:53:25;;;;;;;1999.90;999.90;;;7.90;99.90;;;;;;5051260;28;20046;-66
2023/10/16 03:55:51;;;;;;;1999.90;999.90;;;8.00;99.90;;;;;;5042725;28;20037;-66
2023/10/16 03:58:17;;;;;;;1999.90;999.90;;;8.00;99.90;;;;;;5043331;28;20053;-66
2023/10/16 04:00:56;;;;;;;1999.90;999.90;;;8.00;99.90;;;;;;5044031;28;20098;-66
2023/10/16 04:03:25;;;;;;;1999.90;999.90;;;7.90;99.90;;;;;;5048080;28;20049;-66
2023/10/16 04:05:51;;;;;;;1999.90;999.90;;;7.90;99.90;;;;;;5049301;28;20237;-66
2023/10/16 04:08:21;;;;;;;1999.90;999.90;;;7.90;99.90;;;;;;5033757;28;20409;-66
2023/10/16 04:10:47;;;;;;;1999.90;999.90;;;7.90;99.90;;;;;;5037479;28;20044;-66
2023/10/16 04:13:14;;;;;;;1999.90;999.90;;;7.80;99.90;;;;;;5046916;28;20037;-66
2023/10/16 04:31:44;;;;;;;1999.90;999.90;;;7.40;99.90;;;;;;5045506;28;20128;-66
2023/10/16 04:36:53;;;;;;;1999.90;999.90;;;7.40;99.90;;;;;;5044799;28;20045;-66
2023/10/16 04:45:24;;;;;;;1999.90;999.90;;;7.30;99.90;;;;;;5045826;28;21464;-66
2023/10/16 04:50:49;;;;;;;1999.90;999.90;;;7.20;99.90;;;;;;5063770;28;20056;-66
2023/10/16 04:53:13;;;;;;;1999.90;999.90;;;7.10;99.90;;;;;;5048392;28;20398;-66
2023/10/16 05:00:57;;;;;;;1999.90;999.90;;;6.90;99.90;;;;;;5043041;28;20056;-66
2023/10/16 05:06:14;;;;;;;1999.90;999.90;;;6.80;99.90;;;;;;5042064;28;20095;-66
2023/10/16 05:22:04;;;;;;;1999.90;999.90;;;6.60;99.90;;;;;;5041182;28;20052;-66
2023/10/16 06:14:20;;;;;;;1999.90;999.90;;;6.90;99.90;;;;;;5060045;28;20076;-66
2023/10/16 06:16:53;;;;;;;1999.90;999.90;;;6.90;99.90;;;;;;5046446;28;20603;-66
2023/10/16 06:19:19;;;;;;;1999.90;999.90;;;6.90;99.90;;;;;;5052464;28;20049;-66
2023/10/16 06:21:46;;;;;;;1999.90;999.90;;;7.00;99.90;;;;;;5037114;28;20179;-66
2023/10/16 06:24:28;;;;;;;1999.90;999.90;;;7.10;99.90;;;;;;5038267;28;20498;-66
2023/10/16 06:26:59;;;;;;;1999.90;999.90;;;7.10;99.90;;;;;;5046227;28;20069;-67
2023/10/16 06:29:34;;;;;;;1999.90;999.90;;;7.20;99.90;;;;;;5043637;28;20041;-67
2023/10/16 06:32:07;;;;;;;1999.90;999.90;;;7.20;99.90;;;;;;5042949;28;20025;-66
2023/10/16 06:34:34;;;;;;;1999.90;999.90;;;7.30;99.90;;;;;;5043132;28;20041;-67
2023/10/16 06:37:05;;;;;;;1999.90;999.90;;;7.40;99.90;;;;;;5046384;28;20287;-66
2023/10/16 06:39:36;;;;;;;1999.90;999.90;;;7.40;99.90;;;;;;5056154;28;20041;-67
2023/10/16 06:42:03;;;;;;;1999.90;999.90;;;7.50;99.90;;;;;;5037389;28;20061;-66
2023/10/16 06:44:29;;;;;;;1999.90;999.90;;;7.50;99.90;;;;;;5027141;28;20045;-66
2023/10/16 06:46:59;;;;;;;1999.90;999.90;;;7.70;99.90;;;;;;5041904;28;20037;-67
2023/10/16 06:49:37;;;;;;;1999.90;999.90;;;7.70;99.90;;;;;;5027754;28;20500;-66
2023/10/16 06:52:04;;;;;;;1999.90;999.90;;;7.80;99.90;;;;;;5038305;28;20057;-66
2023/10/16 06:54:31;;;;;;;1999.90;999.90;;;7.90;99.90;;;;;;5027172;28;20040;-67
2023/10/16 06:57:04;;;;;;;1999.90;999.90;;;7.90;99.90;;;;;;5047057;28;20049;-67
2023/10/16 06:59:31;;;;;;;1999.90;999.90;;;8.00;99.90;;;;;;5034435;28;20053;-66
2023/10/16 07:01:56;;;;;;;1999.90;999.90;;;8.10;99.90;;;;;;5045866;28;20391;-67
2023/10/16 07:04:22;;;;;;;1999.90;999.90;;;8.10;99.90;;;;;;5041005;28;20041;-67
2023/10/16 07:06:48;;;;;;;1999.90;999.90;;;8.20;99.90;;;;;;5041832;28;20033;-67
2023/10/16 07:09:16;;;;;;;1999.90;999.90;;;8.20;99.90;;;;;;5044032;28;20467;-67
2023/10/16 07:11:42;;;;;;;1999.90;999.90;;;8.20;99.90;;;;;;5045755;28;20091;-67
2023/10/16 07:14:12;;;;;;;1999.90;999.90;;;8.20;99.90;;;;;;5046866;28;20049;-67
2023/10/16 07:16:41;;;;;;;1999.90;999.90;;;8.30;99.90;;;;;;5054583;28;20037;-67
2023/10/16 07:19:08;;;;;;;1999.90;999.90;;;8.30;99.90;;;;;;5026442;28;20128;-66
2023/10/16 07:21:33;;;;;;;1999.90;999.90;;;8.30;99.90;;;;;;5024992;28;20054;-67
2023/10/16 07:23:59;;;;;;;1999.90;999.90;;;8.40;99.90;;;;;;5044439;28;20474;-67
2023/10/16 07:26:26;;;;;;;1999.90;999.90;;;8.40;99.90;;;;;;5028826;28;20485;-66
2023/10/16 07:28:52;;;;;;;1999.90;999.90;;;8.40;99.90;;;;;;5045136;28;20052;-67
2023/10/16 07:31:18;;;;;;;1999.90;999.90;;;8.50;99.90;;;;;;5041696;28;20421;-67
2023/10/16 07:33:53;;;;;;;1999.90;999.90;;;8.50;99.90;;;;;;5053103;28;20442;-67
2023/10/16 07:36:18;;;;;;;1999.90;999.90;;;8.60;99.90;;;;;;5043925;28;20078;-67
2023/10/16 07:38:44;;;;;;;1999.90;999.90;;;8.60;99.90;;;;;;5047300;28;20044;-67
2023/10/16 07:41:13;;;;;;;1999.90;999.90;;;8.70;99.90;;;;;;5043898;28;20053;-67
2023/10/16 07:43:39;;;;;;;1999.90;999.90;;;8.80;99.90;;;;;;5029423;28;20037;-67
2023/10/16 07:48:44;;;;;;;1999.90;999.90;;;9.00;99.90;;;;;;5044794;28;20107;-67
2023/10/16 07:51:11;;;;;;;1999.90;999.90;;;9.20;99.90;;;;;;5042081;28;20037;-66
2023/10/16 07:53:38;;;;;;;1999.90;999.90;;;9.40;99.90;;;;;;5042979;28;20408;-67
2023/10/16 07:56:49;;;;;;;1999.90;999.90;;;9.60;99.90;;;;;;5043909;28;20037;-67
2023/10/16 07:59:07;;;;;;;1999.90;999.90;;;9.60;99.90;;;;;;5041980;28;20052;-67
2023/10/16 08:01:45;;;;;;;1999.90;999.90;;;9.70;99.90;;;;;;5042266;28;20033;-67
2023/10/16 08:07:04;;;;;;;1999.90;999.90;;;9.80;99.90;;;;;;5044685;28;20381;-67
2023/10/16 08:14:54;;;;;;;1999.90;999.90;;;10.00;99.90;;;;;;5045761;28;21345;-67
2023/10/16 08:17:26;;;;;;;1999.90;999.90;;;10.10;99.90;;;;;;5044605;28;20040;-67
2023/10/16 08:19:52;;;;;;;1999.90;999.90;;;10.10;99.90;;;;;;5042271;28;20045;-67
2023/10/16 08:22:19;;;;;;;1999.90;999.90;;;10.20;99.90;;;;;;5042377;28;20413;-67
2023/10/16 08:25:07;;;;;;;1999.90;999.90;;;10.20;99.90;;;;;;5044133;28;20040;-67
2023/10/16 08:33:06;;;;;;;1999.90;999.90;;;10.30;99.90;;;;;;5034944;28;20069;-67
2023/10/16 08:35:41;;;;;;;1999.90;999.90;;;10.40;99.90;;;;;;5038432;28;20041;-67
2023/10/16 08:38:36;;;;;;;1999.90;999.90;;;10.50;99.90;;;;;;5055389;28;20040;-67
2023/10/16 08:41:06;;;;;;;1999.90;999.90;;;10.50;99.90;;;;;;5050728;28;20079;-67
2023/10/16 08:46:30;;;;;;;1999.90;999.90;;;10.70;99.90;;;;;;5037282;28;20053;-67
2023/10/16 08:48:57;;;;;;;1999.90;999.90;;;11.00;99.90;;;;;;5058748;28;20057;-67
2023/10/16 08:51:23;;;;;;;1999.90;999.90;;;11.30;99.90;;;;;;5031770;28;20575;-67
2023/10/16 08:53:48;;;;;;;1999.90;999.90;;;11.60;99.90;;;;;;5041172;28;20148;-68
2023/10/16 08:56:18;;;;;;;1999.90;999.90;;;11.80;99.90;;;;;;5039972;28;20060;-67
2023/10/16 08:58:45;;;;;;;1999.90;999.90;;;12.00;99.90;;;;;;5061824;28;20048;-68
2023/10/16 09:01:13;;;;;;;1999.90;999.90;;;12.20;99.90;;;;;;5047391;28;20041;-68
2023/10/16 09:03:49;;;;;;;1999.90;999.90;;;12.30;99.90;;;;;;5041582;28;20544;-67
2023/10/16 09:06:22;;;;;;;1999.90;999.90;;;12.40;99.90;;;;;;5041399;28;20480;-68
2023/10/16 09:08:52;;;;;;;1999.90;999.90;;;12.50;99.90;;;;;;5048418;28;20041;-68
2023/10/16 09:11:22;;;;;;;1999.90;999.90;;;12.50;99.90;;;;;;5036836;28;20421;-67
2023/10/16 09:13:51;;;;;;;1999.90;999.90;;;12.60;99.90;;;;;;5047274;28;20083;-67
2023/10/16 09:16:21;;;;;;;1999.90;999.90;;;12.70;99.90;;;;;;5035682;28;20497;-67
2023/10/16 09:18:47;;;;;;;1999.90;999.90;;;12.80;99.90;;;;;;5045859;28;20040;-68
2023/10/16 09:21:13;;;;;;;1999.90;999.90;;;12.80;99.90;;;;;;5047107;28;20052;-68
2023/10/16 09:23:51;;;;;;;1999.90;999.90;;;12.70;99.90;;;;;;5043162;28;20033;-67
2023/10/16 09:26:18;;;;;;;1999.90;999.90;;;12.60;99.90;;;;;;5028079;28;20056;-67
2023/10/16 09:28:53;;;;;;;1999.90;999.90;;;12.30;99.90;;;;;;5044513;28;20055;-67
2023/10/16 09:31:19;;;;;;;1999.90;999.90;;;12.10;99.90;;;;;;5045789;28;20041;-67
2023/10/16 09:33:48;;;;;;;1999.90;999.90;;;11.90;99.90;;;;;;5046723;28;20052;-68
2023/10/16 09:36:19;;;;;;;1999.90;999.90;;;11.80;99.90;;;;;;5029091;28;20120;-68
2023/10/16 09:38:56;;;;;;;1999.90;999.90;;;11.70;99.90;;;;;;5045495;28;20120;-67
2023/10/16 09:43:56;;;;;;;1999.90;999.90;;;11.60;99.90;;;;;;5056797;28;20049;-68
2023/10/16 09:49:13;;;;;;;1999.90;999.90;;;11.70;99.90;;;;;;5040758;28;20391;-68
2023/10/16 09:51:39;;;;;;;1999.90;999.90;;;11.90;99.90;;;;;;5057226;28;20048;-68
2023/10/16 09:54:09;;;;;;;1999.90;999.90;;;12.00;99.90;;;;;;5039449;28;20041;-68
2023/10/16 09:56:38;;;;;;;1999.90;999.90;;;12.00;99.90;;;;;;5027666;28;20136;-68
2023/10/16 09:59:09;;;;;;;1999.90;999.90;;;12.20;99.90;;;;;;5039716;28;20437;-68
2023/10/16 10:01:42;;;;;;;1999.90;999.90;;;12.40;99.90;;;;;;5035337;28;20045;-68
2023/10/16 10:04:10;;;;;;;1999.90;999.90;;;12.60;99.90;;;;;;5036822;28;20120;-68
2023/10/16 10:06:39;;;;;;;1999.90;999.90;;;12.90;99.90;;;;;;5036168;28;20048;-68
2023/10/16 10:12:13;;;;;;;1999.90;999.90;;;13.20;99.90;;;;;;5040154;28;20094;-69
2023/10/16 10:14:48;;;;;;;1999.90;999.90;;;13.30;99.90;;;;;;5038967;28;20501;-68
2023/10/16 10:17:19;;;;;;;1999.90;999.90;;;13.30;99.90;;;;;;5051131;28;20041;-68
2023/10/16 10:19:58;;;;;;;1999.90;999.90;;;13.20;99.90;;;;;;5027478;28;20102;-69
2023/10/16 10:22:35;;;;;;;1999.90;999.90;;;13.20;99.90;;;;;;5044514;28;20406;-68
2023/10/16 10:25:17;;;;;;;1999.90;999.90;;;13.10;99.90;;;;;;5029577;28;20053;-68
2023/10/16 10:27:44;;;;;;;1999.90;999.90;;;13.00;99.90;;;;;;5038032;28;20049;-68
2023/10/16 10:30:25;;;;;;;1999.90;999.90;;;12.80;99.90;;;;;;5040195;28;20519;-68
2023/10/16 10:32:57;;;;;;;1999.90;999.90;;;12.70;99.90;;;;;;5033677;28;20406;-68
2023/10/16 10:35:38;;;;;;;1999.90;999.90;;;12.60;99.90;;;;;;5045658;28;20090;-68
2023/10/16 10:38:20;;;;;;;1999.90;999.90;;;12.60;99.90;;;;;;5040293;28;20038;-68
2023/10/16 10:41:08;;;;;;;1999.90;999.90;;;12.50;99.90;;;;;;5043373;28;20053;-68
2023/10/16 10:43:46;;;;;;;1999.90;999.90;;;12.40;99.90;;;;;;5038973;28;20056;-69
2023/10/16 10:46:32;;;;;;;1999.90;999.90;;;12.40;99.90;;;;;;5046506;28;20052;-69
2023/10/16 10:49:01;;;;;;;1999.90;999.90;;;12.50;99.90;;;;;;5052473;28;20060;-68
2023/10/16 10:51:34;;;;;;;1999.90;999.90;;;12.50;99.90;;;;;;5038235;28;20200;-68
2023/10/16 10:54:03;;;;;;;1999.90;999.90;;;12.50;99.90;;;;;;5045698;28;20051;-68
2023/10/16 10:56:39;;;;;;;1999.90;999.90;;;12.50;99.90;;;;;;5040237;28;20402;-68
2023/10/16 10:59:11;;;;;;;1999.90;999.90;;;12.60;99.90;;;;;;5056874;28;20043;-68
2023/10/16 11:01:51;;;;;;;1999.90;999.90;;;12.70;99.90;;;;;;5042612;28;20048;-68
2023/10/16 11:04:17;;;;;;;1999.90;999.90;;;12.90;99.90;;;;;;5043991;28;20049;-68
2023/10/16 11:06:49;;;;;;;1999.90;999.90;;;13.10;99.90;;;;;;5041309;28;20556;-68
2023/10/16 11:09:18;;;;;;;1999.90;999.90;;;13.30;99.90;;;;;;5034601;28;20045;-68
2023/10/16 11:11:50;;;;;;;1999.90;999.90;;;13.40;99.90;;;;;;5040162;28;20091;-68
2023/10/16 11:14:16;;;;;;;1999.90;999.90;;;13.50;99.90;;;;;;5038549;28;20037;-68
2023/10/16 11:16:45;;;;;;;1999.90;999.90;;;13.50;99.90;;;;;;5024372;28;20040;-68
2023/10/16 11:19:12;;;;;;;1999.90;999.90;;;13.60;99.90;;;;;;5037265;28;20428;-68
2023/10/16 11:21:45;;;;;;;1999.90;999.90;;;13.60;99.90;;;;;;5021514;28;20044;-68
2023/10/16 11:24:14;;;;;;;1999.90;999.90;;;13.60;99.90;;;;;;5036157;28;20041;-68
2023/10/16 11:26:42;;;;;;;1999.90;999.90;;;13.60;99.90;;;;;;5038333;28;20041;-68
2023/10/16 11:29:12;;;;;;;1999.90;999.90;;;13.60;99.90;;;;;;5055869;28;20493;-68
2023/10/16 11:31:41;;;;;;;1999.90;999.90;;;13.60;99.90;;;;;;5028468;28;20056;-68
2023/10/16 11:34:12;;;;;;;1999.90;999.90;;;13.60;99.90;;;;;;5049984;28;20388;-67
2023/10/16 11:36:39;;;;;;;1999.90;999.90;;;13.60;99.90;;;;;;5041224;28;20051;-68
2023/10/16 11:39:06;;;;;;;1999.90;999.90;;;13.60;99.90;;;;;;5050891;28;20049;-68
2023/10/16 11:41:33;;;;;;;1999.90;999.90;;;13.70;99.90;;;;;;5044279;28;20071;-68
2023/10/16 11:44:13;;;;;;;1999.90;999.90;;;13.60;99.90;;;;;;5042748;28;20405;-68
2023/10/16 11:46:52;;;;;;;1999.90;999.90;;;13.60;99.90;;;;;;5044846;28;20459;-68
2023/10/16 11:51:51;;;;;;;1999.90;999.90;;;13.40;99.90;;;;;;5046053;28;20626;-68
2023/10/16 11:54:21;;;;;;;1999.90;999.90;;;13.30;99.90;;;;;;5040080;28;20053;-67
2023/10/16 11:56:54;;;;;;;1999.90;999.90;;;13.20;99.90;;;;;;5044374;28;20129;-68
2023/10/16 11:59:25;;;;;;;1999.90;999.90;;;13.10;99.90;;;;;;5051490;28;20080;-67
2023/10/16 12:01:52;;;;;;;1999.90;999.90;;;13.10;99.90;;;;;;5054090;28;20045;-67
2023/10/16 12:04:22;;;;;;;1999.90;999.90;;;13.10;99.90;;;;;;5045461;28;20053;-68
2023/10/16 12:06:48;;;;;;;1999.90;999.90;;;13.10;99.90;;;;;;5051864;28;20448;-68
2023/10/16 12:09:20;;;;;;;1999.90;999.90;;;13.10;99.90;;;;;;5049468;28;20045;-68
2023/10/16 12:11:49;;;;;;;1999.90;999.90;;;13.20;99.90;;;;;;5047034;28;20132;-68
2023/10/16 12:14:18;;;;;;;1999.90;999.90;;;13.30;99.90;;;;;;5042501;28;20045;-68
2023/10/16 12:16:46;;;;;;;1999.90;999.90;;;13.40;99.90;;;;;;5043116;28;20037;-68
2023/10/16 12:19:16;;;;;;;1999.90;999.90;;;13.50;99.90;;;;;;5040894;28;20045;-68
2023/10/16 12:21:47;;;;;;;1999.90;999.90;;;13.50;99.90;;;;;;5046433;28;20040;-68
2023/10/16 12:24:14;;;;;;;1999.90;999.90;;;13.50;99.90;;;;;;5040700;28;20064;-68
2023/10/16 12:26:42;;;;;;;1999.90;999.90;;;13.50;99.90;;;;;;5041219;28;20037;-68
2023/10/16 12:29:08;;;;;;;1999.90;999.90;;;13.50;99.90;;;;;;5036515;28;20425;-68
2023/10/16 12:31:35;;;;;;;1999.90;999.90;;;13.50;99.90;;;;;;5041172;28;20055;-68
2023/10/16 12:34:01;;;;;;;1999.90;999.90;;;13.50;99.90;;;;;;5039857;28;20049;-68
2023/10/16 12:36:26;;;;;;;1999.90;999.90;;;13.40;99.90;;;;;;5044640;28;20049;-67
2023/10/16 12:38:55;;;;;;;1999.90;999.90;;;13.40;99.90;;;;;;5032110;28;20055;-68
2023/10/16 12:41:21;;;;;;;1999.90;999.90;;;13.30;99.90;;;;;;5042043;28;20480;-67
2023/10/16 12:43:48;;;;;;;1999.90;999.90;;;13.30;99.90;;;;;;5027099;28;20043;-67
2023/10/16 12:46:14;;;;;;;1999.90;999.90;;;13.30;99.90;;;;;;5035388;28;20116;-68
2023/10/16 12:48:39;;;;;;;1999.90;999.90;;;13.30;99.90;;;;;;5045195;28;20132;-68
2023/10/16 12:51:10;;;;;;;1999.90;999.90;;;13.30;99.90;;;;;;5037358;28;20068;-68
2023/10/16 12:53:37;;;;;;;1999.90;999.90;;;13.20;99.90;;;;;;5056847;28;20045;-68
2023/10/16 12:56:05;;;;;;;1999.90;999.90;;;13.30;99.90;;;;;;5043276;28;20061;-68
2023/10/16 12:58:33;;;;;;;1999.90;999.90;;;13.30;99.90;;;;;;5054257;28;20420;-68
2023/10/16 13:01:00;;;;;;;1999.90;999.90;;;13.40;99.90;;;;;;5042049;28;20393;-68
2023/10/16 13:03:26;;;;;;;1999.90;999.90;;;13.50;99.90;;;;;;5040556;28;20053;-67
2023/10/16 13:05:52;;;;;;;1999.90;999.90;;;13.50;99.90;;;;;;5048487;28;20036;-68
2023/10/16 13:08:20;;;;;;;1999.90;999.90;;;13.50;99.90;;;;;;5037089;28;20049;-67
2023/10/16 13:10:48;;;;;;;1999.90;999.90;;;13.50;99.90;;;;;;5029558;28;20041;-68
2023/10/16 13:13:21;;;;;;;1999.90;999.90;;;13.50;99.90;;;;;;5042978;28;20051;-67
2023/10/16 13:15:51;;;;;;;1999.90;999.90;;;13.60;99.90;;;;;;5033584;28;20096;-68
2023/10/16 13:18:28;;;;;;;1999.90;999.90;;;13.60;99.90;;;;;;5047575;28;20048;-68
2023/10/16 13:21:13;;;;;;;1999.90;999.90;;;13.60;99.90;;;;;;5047333;28;20051;-67
2023/10/16 13:23:39;;;;;;;1999.90;999.90;;;13.60;99.90;;;;;;5045834;28;20072;-67
2023/10/16 13:26:08;;;;;;;1999.90;999.90;;;13.60;99.90;;;;;;5048353;28;20041;-67
2023/10/16 13:28:41;;;;;;;1999.90;999.90;;;13.60;99.90;;;;;;5044615;28;20087;-67
2023/10/16 13:31:08;;;;;;;1999.90;999.90;;;13.70;99.90;;;;;;5039822;28;20481;-68
2023/10/16 13:33:34;;;;;;;1999.90;999.90;;;13.70;99.90;;;;;;5042297;28;20436;-68
2023/10/16 13:36:04;;;;;;;1999.90;999.90;;;13.70;99.90;;;;;;5044321;28;20071;-68
2023/10/16 13:38:31;;;;;;;1999.90;999.90;;;13.70;99.90;;;;;;5052973;28;20121;-68
2023/10/16 13:40:57;;;;;;;1999.90;999.90;;;13.70;99.90;;;;;;5032515;28;20057;-67
2023/10/16 13:43:23;;;;;;;1999.90;999.90;;;13.70;99.90;;;;;;5038685;28;20041;-68
2023/10/16 13:45:52;;;;;;;1999.90;999.90;;;13.70;99.90;;;;;;5027899;28;20041;-68
2023/10/16 13:48:21;;;;;;;1999.90;999.90;;;13.70;99.90;;;;;;5052321;28;20452;-67
2023/10/16 13:50:47;;;;;;;1999.90;999.90;;;13.70;99.90;;;;;;5036319;28;20056;-68
2023/10/16 13:53:13;;;;;;;1999.90;999.90;;;13.80;99.90;;;;;;5049488;28;20045;-68
2023/10/16 13:55:39;;;;;;;72.53;69.10;;;13.80;99.90;;;;;;5038657;28;20030;-68
2023/10/16 13:58:05;;;;;;;1999.90;999.90;;;13.80;99.90;;;;;;5048230;28;20541;-68
2023/10/16 14:00:35;;;;;;;1999.90;999.90;;;13.70;99.90;;;;;;5043710;28;20048;-67
2023/10/16 14:03:10;;;;;;;1999.90;999.90;;;13.70;99.90;;;;;;5039548;28;20493;-68
2023/10/16 14:05:52;;;;;;;1999.90;999.90;;;13.60;99.90;;;;;;5033070;28;20041;-68
2023/10/16 14:08:26;;;;;;;1999.90;999.90;;;13.60;99.90;;;;;;5052312;28;20041;-67
2023/10/16 14:10:52;;;;;;;1999.90;999.90;;;13.50;99.90;;;;;;5042128;28;20037;-67
2023/10/16 14:13:19;;;;;;;1999.90;999.90;;;13.50;99.90;;;;;;5047259;28;20042;-68
2023/10/16 14:15:49;;;;;;;1999.90;999.90;;;13.40;99.90;;;;;;5043457;28;20032;-67
2023/10/16 14:18:20;;;;;;;1999.90;999.90;;;13.40;99.90;;;;;;5041880;28;20214;-67
2023/10/16 14:20:49;;;;;;;1999.90;999.90;;;13.40;99.90;;;;;;5047278;28;20367;-67
2023/10/16 14:23:17;;;;;;;1999.90;999.90;;;13.30;99.90;;;;;;5043079;28;20041;-68
2023/10/16 14:25:47;;;;;;;1999.90;999.90;;;13.30;99.90;;;;;;5047068;28;20048;-67
2023/10/16 14:31:04;;;;;;;1999.90;999.90;;;13.30;99.90;;;;;;5047187;28;20059;-67
2023/10/16 14:33:32;;;;;;;1999.90;999.90;;;13.30;99.90;;;;;;5047358;28;20036;-68